createdAt,value
2023-05-14T00:00:16.305Z,25.22
2023-05-14T00:01:16.340Z,25.21
2023-05-14T00:02:16.354Z,25.19
2023-05-14T00:03:16.464Z,25.19
2023-05-14T00:04:16.323Z,25.18
2023-05-14T00:05:16.266Z,25.18
2023-05-14T00:06:16.269Z,25.18
2023-05-14T00:07:16.292Z,25.18
2023-05-14T00:08:16.257Z,25.17
2023-05-14T00:09:16.273Z,25.17
2023-05-14T00:10:16.308Z,25.16
2023-05-14T00:11:16.241Z,25.14
2023-05-14T00:12:16.241Z,25.14
2023-05-14T00:13:16.210Z,25.13
2023-05-14T00:14:16.226Z,25.12
2023-05-14T00:15:16.214Z,25.13
2023-05-14T00:16:16.276Z,25.13
2023-05-14T00:17:16.179Z,25.12
2023-05-14T00:18:16.199Z,25.13
2023-05-14T00:19:16.319Z,25.12
2023-05-14T00:20:16.199Z,25.12
2023-05-14T00:21:16.207Z,25.11
2023-05-14T00:22:16.155Z,25.10
2023-05-14T00:23:16.165Z,25.11
2023-05-14T00:24:16.185Z,25.11
2023-05-14T00:25:16.148Z,25.10
2023-05-14T00:26:16.134Z,25.10
2023-05-14T00:27:16.188Z,25.11
2023-05-14T00:28:16.179Z,25.11
2023-05-14T00:29:16.203Z,25.11
2023-05-14T00:30:16.235Z,25.11
2023-05-14T00:31:16.285Z,25.11
2023-05-14T00:32:16.296Z,25.11
2023-05-14T00:33:16.258Z,25.11
2023-05-14T00:34:16.301Z,25.11
2023-05-14T00:35:16.278Z,25.10
2023-05-14T00:36:16.310Z,25.10
2023-05-14T00:37:16.353Z,25.10
2023-05-14T00:38:16.331Z,25.09
2023-05-14T00:39:16.379Z,25.08
2023-05-14T00:40:16.403Z,25.09
2023-05-14T00:41:16.413Z,25.09
2023-05-14T00:42:16.391Z,25.09
2023-05-14T00:43:16.425Z,25.10
2023-05-14T00:44:16.467Z,25.10
2023-05-14T00:45:16.485Z,25.10
2023-05-14T00:46:16.516Z,25.10
2023-05-14T00:47:16.493Z,25.11
2023-05-14T00:48:16.512Z,25.11
2023-05-14T00:49:16.539Z,25.11
2023-05-14T00:50:16.561Z,25.11
2023-05-14T00:51:16.576Z,25.09
2023-05-14T00:52:16.592Z,25.10
2023-05-14T00:53:16.656Z,25.10
2023-05-14T00:54:16.599Z,25.09
2023-05-14T00:55:16.721Z,25.10
2023-05-14T00:56:16.683Z,25.09
2023-05-14T00:57:16.690Z,25.09
2023-05-14T00:58:16.716Z,25.10
2023-05-14T00:59:16.719Z,25.10
2023-05-14T01:00:16.787Z,25.10
2023-05-14T01:01:16.890Z,25.09
2023-05-14T01:02:16.757Z,25.10
2023-05-14T01:03:16.935Z,25.10
2023-05-14T01:04:16.818Z,25.09
2023-05-14T01:05:16.865Z,25.09
2023-05-14T01:06:16.877Z,25.09
2023-05-14T01:07:16.909Z,25.10
2023-05-14T01:08:16.951Z,25.10
2023-05-14T01:09:16.927Z,25.10
2023-05-14T01:10:16.954Z,25.10
2023-05-14T01:11:16.989Z,25.10
2023-05-14T01:12:16.999Z,25.10
2023-05-14T01:13:17.045Z,25.09
2023-05-14T01:14:17.044Z,25.10
2023-05-14T01:15:17.086Z,25.09
2023-05-14T01:16:17.118Z,25.09
2023-05-14T01:17:17.102Z,25.10
2023-05-14T01:18:17.129Z,25.09
2023-05-14T01:19:17.224Z,25.09
2023-05-14T01:20:17.191Z,25.09
2023-05-14T01:21:17.197Z,25.09
2023-05-14T01:22:17.256Z,25.09
2023-05-14T01:23:17.267Z,25.09
2023-05-14T01:24:17.257Z,25.09
2023-05-14T01:25:17.287Z,25.09
2023-05-14T01:26:17.319Z,25.09
2023-05-14T01:27:17.341Z,25.10
2023-05-14T01:28:17.405Z,25.10
2023-05-14T01:29:17.387Z,25.09
2023-05-14T01:30:17.395Z,25.09
2023-05-14T01:31:17.506Z,25.08
2023-05-14T01:32:17.671Z,25.08
2023-05-14T01:33:17.467Z,25.09
2023-05-14T01:34:17.468Z,25.08
2023-05-14T01:35:17.541Z,25.08
2023-05-14T01:36:17.532Z,25.09
2023-05-14T01:37:17.550Z,25.08
2023-05-14T01:38:17.586Z,25.08
2023-05-14T01:39:17.608Z,25.09
2023-05-14T01:40:17.643Z,25.10
2023-05-14T01:41:17.645Z,25.10
2023-05-14T01:42:17.714Z,25.10
2023-05-14T01:43:17.671Z,25.10
2023-05-14T01:44:17.701Z,25.09
2023-05-14T01:45:17.760Z,25.09
2023-05-14T01:46:17.799Z,25.10
2023-05-14T01:47:17.738Z,25.09
2023-05-14T01:48:17.761Z,25.09
2023-05-14T01:49:17.770Z,25.09
2023-05-14T01:50:17.835Z,25.09
2023-05-14T01:51:17.822Z,25.09
2023-05-14T01:52:17.859Z,25.08
2023-05-14T01:53:17.874Z,25.08
2023-05-14T01:54:17.865Z,25.08
2023-05-14T01:55:17.898Z,25.08
2023-05-14T01:56:17.932Z,25.08
2023-05-14T01:57:17.928Z,25.08
2023-05-14T01:58:17.955Z,25.07
2023-05-14T01:59:17.991Z,25.08
2023-05-14T02:00:18.015Z,25.07
2023-05-14T02:01:18.115Z,25.07
2023-05-14T02:02:18.077Z,25.07
2023-05-14T02:03:18.098Z,25.07
2023-05-14T02:04:18.189Z,25.07
2023-05-14T02:05:18.153Z,25.06
2023-05-14T02:06:18.161Z,25.07
2023-05-14T02:07:18.180Z,25.06
2023-05-14T02:08:18.219Z,25.05
2023-05-14T02:09:18.258Z,25.05
2023-05-14T02:10:18.280Z,25.05
2023-05-14T02:11:18.293Z,25.05
2023-05-14T02:12:18.299Z,25.06
2023-05-14T02:13:18.342Z,25.05
2023-05-14T02:14:18.384Z,25.05
2023-05-14T02:15:18.420Z,25.05
2023-05-14T02:16:18.448Z,25.06
2023-05-14T02:17:18.473Z,25.06
2023-05-14T02:18:18.482Z,25.04
2023-05-14T02:19:18.509Z,25.05
2023-05-14T02:20:18.532Z,25.04
2023-05-14T02:21:18.512Z,25.04
2023-05-14T02:22:18.578Z,25.03
2023-05-14T02:23:19.498Z,25.03
2023-05-14T02:24:18.648Z,25.03
2023-05-14T02:25:18.665Z,25.03
2023-05-14T02:26:18.721Z,25.03
2023-05-14T02:27:18.708Z,25.03
2023-05-14T02:28:18.720Z,25.03
2023-05-14T02:29:18.756Z,25.03
2023-05-14T02:30:18.799Z,25.03
2023-05-14T02:31:18.825Z,25.03
2023-05-14T02:32:18.892Z,25.02
2023-05-14T02:33:19.019Z,25.02
2023-05-14T02:34:18.904Z,25.02
2023-05-14T02:35:18.972Z,25.02
2023-05-14T02:36:18.979Z,25.02
2023-05-14T02:37:19.031Z,25.01
2023-05-14T02:38:19.054Z,25.01
2023-05-14T02:39:19.028Z,25.02
2023-05-14T02:40:19.102Z,25.02
2023-05-14T02:41:19.105Z,25.01
2023-05-14T02:42:19.143Z,25.02
2023-05-14T02:43:19.174Z,25.02
2023-05-14T02:44:19.168Z,25.01
2023-05-14T02:45:19.254Z,25.02
2023-05-14T02:46:19.286Z,25.01
2023-05-14T02:47:19.348Z,25.02
2023-05-14T02:48:19.301Z,25.02
2023-05-14T02:49:19.323Z,25.01
2023-05-14T02:50:19.390Z,25.00
2023-05-14T02:51:19.397Z,25.01
2023-05-14T02:52:19.429Z,25.01
2023-05-14T02:53:19.465Z,25.01
2023-05-14T02:54:19.522Z,25.01
2023-05-14T02:55:19.522Z,25.00
2023-05-14T02:56:19.540Z,25.00
2023-05-14T02:57:19.573Z,25.01
2023-05-14T02:58:19.617Z,25.02
2023-05-14T02:59:20.606Z,25.02
2023-05-14T03:00:19.595Z,25.03
2023-05-14T03:01:19.669Z,25.03
2023-05-14T03:02:19.590Z,25.04
2023-05-14T03:03:19.574Z,25.04
2023-05-14T03:04:19.581Z,25.03
2023-05-14T03:05:19.585Z,25.03
2023-05-14T03:06:19.523Z,25.02
2023-05-14T03:07:19.524Z,25.02
2023-05-14T03:08:19.540Z,25.02
2023-05-14T03:09:19.558Z,25.02
2023-05-14T03:10:19.564Z,25.02
2023-05-14T03:11:19.520Z,25.01
2023-05-14T03:12:19.546Z,25.02
2023-05-14T03:13:19.515Z,25.01
2023-05-14T03:14:19.490Z,25.00
2023-05-14T03:15:19.508Z,25.00
2023-05-14T03:16:19.606Z,25.00
2023-05-14T03:17:19.618Z,25.00
2023-05-14T03:18:19.621Z,25.01
2023-05-14T03:19:19.639Z,25.00
2023-05-14T03:20:19.680Z,25.00
2023-05-14T03:21:19.705Z,25.01
2023-05-14T03:22:19.734Z,25.00
2023-05-14T03:23:19.756Z,25.00
2023-05-14T03:24:19.796Z,24.99
2023-05-14T03:25:19.825Z,24.98
2023-05-14T03:26:19.863Z,24.99
2023-05-14T03:27:19.853Z,24.98
2023-05-14T03:28:19.900Z,24.98
2023-05-14T03:29:19.925Z,24.98
2023-05-14T03:30:19.973Z,24.98
2023-05-14T03:31:20.067Z,24.98
2023-05-14T03:32:20.133Z,24.98
2023-05-14T03:33:20.127Z,24.99
2023-05-14T03:34:20.089Z,24.99
2023-05-14T03:35:20.148Z,24.99
2023-05-14T03:36:20.133Z,24.98
2023-05-14T03:37:20.221Z,24.99
2023-05-14T03:38:20.232Z,24.98
2023-05-14T03:39:20.260Z,24.96
2023-05-14T03:40:20.271Z,24.96
2023-05-14T03:41:20.339Z,24.94
2023-05-14T03:42:20.342Z,24.94
2023-05-14T03:43:20.373Z,24.93
2023-05-14T03:44:20.410Z,24.92
2023-05-14T03:45:20.444Z,24.90
2023-05-14T03:46:20.470Z,24.89
2023-05-14T03:47:20.542Z,24.89
2023-05-14T03:48:20.654Z,24.90
2023-05-14T03:49:20.535Z,24.90
2023-05-14T03:50:20.729Z,24.90
2023-05-14T03:51:20.647Z,24.90
2023-05-14T03:52:20.690Z,24.90
2023-05-14T03:53:20.723Z,24.89
2023-05-14T03:54:20.731Z,24.89
2023-05-14T03:55:20.765Z,24.90
2023-05-14T03:56:20.851Z,24.87
2023-05-14T03:57:20.840Z,24.87
2023-05-14T03:58:20.912Z,24.88
2023-05-14T03:59:20.957Z,24.87
2023-05-14T04:00:21.047Z,24.87
2023-05-14T04:01:21.007Z,24.88
2023-05-14T04:02:21.042Z,24.89
2023-05-14T04:03:21.173Z,24.89
2023-05-14T04:04:21.100Z,24.89
2023-05-14T04:05:21.172Z,24.89
2023-05-14T04:06:21.224Z,24.90
2023-05-14T04:07:21.240Z,24.90
2023-05-14T04:08:21.251Z,24.90
2023-05-14T04:09:21.282Z,24.91
2023-05-14T04:10:21.467Z,24.92
2023-05-14T04:11:21.366Z,24.92
2023-05-14T04:12:21.389Z,24.93
2023-05-14T04:13:21.401Z,24.92
2023-05-14T04:14:21.470Z,24.93
2023-05-14T04:15:21.489Z,24.93
2023-05-14T04:16:21.524Z,24.93
2023-05-14T04:17:21.526Z,24.94
2023-05-14T04:18:21.586Z,24.94
2023-05-14T04:19:21.603Z,24.94
2023-05-14T04:20:21.847Z,24.93
2023-05-14T04:21:21.649Z,24.92
2023-05-14T04:22:21.794Z,24.93
2023-05-14T04:23:21.743Z,24.92
2023-05-14T04:24:21.773Z,24.92
2023-05-14T04:25:21.801Z,24.93
2023-05-14T04:26:21.824Z,24.94
2023-05-14T04:27:21.879Z,24.93
2023-05-14T04:28:21.928Z,24.93
2023-05-14T04:29:21.941Z,24.95
2023-05-14T04:30:22.046Z,24.94
2023-05-14T04:31:22.103Z,24.95
2023-05-14T04:32:22.074Z,24.95
2023-05-14T04:33:22.080Z,24.95
2023-05-14T04:34:22.114Z,24.95
2023-05-14T04:35:24.841Z,24.96
2023-05-14T04:36:22.232Z,24.96
2023-05-14T04:37:22.167Z,24.96
2023-05-14T04:38:22.150Z,24.96
2023-05-14T04:39:22.181Z,24.96
2023-05-14T04:40:22.541Z,24.96
2023-05-14T04:41:22.133Z,24.95
2023-05-14T04:42:22.112Z,24.96
2023-05-14T04:43:22.106Z,24.96
2023-05-14T04:44:22.115Z,24.96
2023-05-14T04:45:22.127Z,24.96
2023-05-14T04:46:22.141Z,24.95
2023-05-14T04:47:22.136Z,24.94
2023-05-14T04:48:22.137Z,24.93
2023-05-14T04:49:22.064Z,24.93
2023-05-14T04:50:22.424Z,24.93
2023-05-14T04:51:22.051Z,24.92
2023-05-14T04:52:22.048Z,24.94
2023-05-14T04:53:22.036Z,24.94
2023-05-14T04:54:22.124Z,24.94
2023-05-14T04:55:22.078Z,24.95
2023-05-14T04:56:22.063Z,24.94
2023-05-14T04:57:22.011Z,24.95
2023-05-14T04:58:22.028Z,24.95
2023-05-14T04:59:22.029Z,24.95
2023-05-14T05:00:22.474Z,24.96
2023-05-14T05:01:22.039Z,24.96
2023-05-14T05:02:21.998Z,24.97
2023-05-14T05:03:22.086Z,24.96
2023-05-14T05:04:21.958Z,24.97
2023-05-14T05:05:21.964Z,24.97
2023-05-14T05:06:21.983Z,24.97
2023-05-14T05:07:21.958Z,24.97
2023-05-14T05:08:21.970Z,24.97
2023-05-14T05:09:21.923Z,24.96
2023-05-14T05:10:22.160Z,24.97
2023-05-14T05:11:21.973Z,24.96
2023-05-14T05:12:21.923Z,24.97
2023-05-14T05:13:21.921Z,24.98
2023-05-14T05:14:21.929Z,24.97
2023-05-14T05:15:21.917Z,24.97
2023-05-14T05:16:21.932Z,24.98
2023-05-14T05:17:21.981Z,24.99
2023-05-14T05:18:21.887Z,25.00
2023-05-14T05:19:29.149Z,24.99
2023-05-14T05:20:23.023Z,24.98
2023-05-14T05:21:21.878Z,24.98
2023-05-14T05:22:21.839Z,24.99
2023-05-14T05:23:21.852Z,24.99
2023-05-14T05:24:21.906Z,24.99
2023-05-14T05:25:21.871Z,24.99
2023-05-14T05:26:21.820Z,25.00
2023-05-14T05:27:21.826Z,25.00
2023-05-14T05:28:21.791Z,25.00
2023-05-14T05:29:21.829Z,25.01
2023-05-14T05:30:22.015Z,25.00
2023-05-14T05:31:21.811Z,25.01
2023-05-14T05:32:21.832Z,25.02
2023-05-14T05:33:21.774Z,25.01
2023-05-14T05:34:21.821Z,25.02
2023-05-14T05:35:21.838Z,25.02
2023-05-14T05:36:21.863Z,25.02
2023-05-14T05:37:21.957Z,25.02
2023-05-14T05:38:21.917Z,25.02
2023-05-14T05:39:21.963Z,25.01
2023-05-14T05:40:22.152Z,25.01
2023-05-14T05:41:21.977Z,25.00
2023-05-14T05:42:22.028Z,25.00
2023-05-14T05:43:21.996Z,25.00
2023-05-14T05:44:22.027Z,25.01
2023-05-14T05:45:22.022Z,25.01
2023-05-14T05:46:22.085Z,25.02
2023-05-14T05:47:22.146Z,25.02
2023-05-14T05:48:22.130Z,25.03
2023-05-14T05:49:22.161Z,25.03
2023-05-14T05:50:22.513Z,25.03
2023-05-14T05:51:22.179Z,25.03
2023-05-14T05:52:22.234Z,25.03
2023-05-14T05:53:22.262Z,25.02
2023-05-14T05:54:22.275Z,25.03
2023-05-14T05:55:22.331Z,25.04
2023-05-14T05:56:22.370Z,25.04
2023-05-14T05:57:22.920Z,25.05
2023-05-14T05:58:22.371Z,25.03
2023-05-14T05:59:22.460Z,25.05
2023-05-14T06:00:22.680Z,25.05
2023-05-14T06:01:22.467Z,25.06
2023-05-14T06:02:22.568Z,25.06
2023-05-14T06:03:22.585Z,25.07
2023-05-14T06:04:22.533Z,25.08
2023-05-14T06:05:22.633Z,25.08
2023-05-14T06:06:22.592Z,25.09
2023-05-14T06:07:22.610Z,25.09
2023-05-14T06:08:22.685Z,25.09
2023-05-14T06:09:22.735Z,25.10
2023-05-14T06:10:22.887Z,25.11
2023-05-14T06:11:22.708Z,25.11
2023-05-14T06:12:22.788Z,25.11
2023-05-14T06:13:22.772Z,25.13
2023-05-14T06:14:22.805Z,25.13
2023-05-14T06:15:22.774Z,25.13
2023-05-14T06:16:22.858Z,25.14
2023-05-14T06:17:22.874Z,25.14
2023-05-14T06:18:22.840Z,25.15
2023-05-14T06:19:23.045Z,25.14
2023-05-14T06:20:23.038Z,25.14
2023-05-14T06:21:22.917Z,25.15
2023-05-14T06:22:22.939Z,25.15
2023-05-14T06:23:22.896Z,25.17
2023-05-14T06:24:22.940Z,25.17
2023-05-14T06:25:22.949Z,25.18
2023-05-14T06:26:22.965Z,25.19
2023-05-14T06:27:22.987Z,25.19
2023-05-14T06:28:22.990Z,25.19
2023-05-14T06:29:23.020Z,25.19
2023-05-14T06:30:23.562Z,25.20
2023-05-14T06:31:23.066Z,25.19
2023-05-14T06:32:23.174Z,25.21
2023-05-14T06:33:23.083Z,25.19
2023-05-14T06:34:23.076Z,25.19
2023-05-14T06:35:23.102Z,25.20
2023-05-14T06:36:23.108Z,25.21
2023-05-14T06:37:23.087Z,25.21
2023-05-14T06:38:23.167Z,25.22
2023-05-14T06:39:23.172Z,25.24
2023-05-14T06:40:23.507Z,25.25
2023-05-14T06:41:23.151Z,25.25
2023-05-14T06:42:23.148Z,25.23
2023-05-14T06:43:23.184Z,25.23
2023-05-14T06:44:23.220Z,25.26
2023-05-14T06:45:23.207Z,25.27
2023-05-14T06:46:23.164Z,25.27
2023-05-14T06:47:23.280Z,25.27
2023-05-14T06:48:23.352Z,25.28
2023-05-14T06:49:23.217Z,25.30
2023-05-14T06:50:23.427Z,25.31
2023-05-14T06:51:23.188Z,25.33
2023-05-14T06:52:23.189Z,25.34
2023-05-14T06:53:23.214Z,25.35
2023-05-14T06:54:23.198Z,25.35
2023-05-14T06:55:23.194Z,25.36
2023-05-14T06:56:23.209Z,25.38
2023-05-14T06:57:23.216Z,25.37
2023-05-14T06:58:23.205Z,25.38
2023-05-14T06:59:23.204Z,25.40
2023-05-14T07:00:23.357Z,25.39
2023-05-14T07:01:23.243Z,25.41
2023-05-14T07:02:23.255Z,25.41
2023-05-14T07:03:23.182Z,25.42
2023-05-14T07:04:23.259Z,25.43
2023-05-14T07:05:23.229Z,25.44
2023-05-14T07:06:23.217Z,25.45
2023-05-14T07:07:23.224Z,25.46
2023-05-14T07:08:23.203Z,25.47
2023-05-14T07:09:23.210Z,25.47
2023-05-14T07:10:23.393Z,25.47
2023-05-14T07:11:23.218Z,25.47
2023-05-14T07:12:23.225Z,25.48
2023-05-14T07:13:23.237Z,25.48
2023-05-14T07:14:23.241Z,25.49
2023-05-14T07:15:23.264Z,25.50
2023-05-14T07:16:23.284Z,25.50
2023-05-14T07:17:23.485Z,25.51
2023-05-14T07:18:23.306Z,25.53
2023-05-14T07:19:23.274Z,25.53
2023-05-14T07:20:23.474Z,25.53
2023-05-14T07:21:23.408Z,25.54
2023-05-14T07:22:23.303Z,25.54
2023-05-14T07:23:23.272Z,25.54
2023-05-14T07:24:23.295Z,25.55
2023-05-14T07:25:23.306Z,25.55
2023-05-14T07:26:23.311Z,25.56
2023-05-14T07:27:23.262Z,25.57
2023-05-14T07:28:23.266Z,25.59
2023-05-14T07:29:23.274Z,25.60
2023-05-14T07:30:23.515Z,25.60
2023-05-14T07:31:23.350Z,25.61
2023-05-14T07:32:23.273Z,25.62
2023-05-14T07:33:23.249Z,25.63
2023-05-14T07:34:23.245Z,25.63
2023-05-14T07:35:23.222Z,25.63
2023-05-14T07:36:23.279Z,25.62
2023-05-14T07:37:24.082Z,25.63
2023-05-14T07:38:23.266Z,25.63
2023-05-14T07:39:23.279Z,25.63
2023-05-14T07:40:23.417Z,25.64
2023-05-14T07:41:23.227Z,25.65
2023-05-14T07:42:35.352Z,25.65
2023-05-14T07:43:24.224Z,25.67
2023-05-14T07:44:23.200Z,25.68
2023-05-14T07:45:23.178Z,25.69
2023-05-14T07:46:23.195Z,25.70
2023-05-14T07:47:23.217Z,25.71
2023-05-14T07:48:23.222Z,25.72
2023-05-14T07:49:23.171Z,25.73
2023-05-14T07:50:23.266Z,25.74
2023-05-14T07:51:23.145Z,25.74
2023-05-14T07:52:23.200Z,25.76
2023-05-14T07:54:11.767Z,25.78
2023-05-14T07:55:11.679Z,25.80
2023-05-14T07:56:11.678Z,25.80
2023-05-14T07:57:11.670Z,25.81
2023-05-14T07:58:11.651Z,25.82
2023-05-14T07:59:11.632Z,25.84
2023-05-14T08:00:11.644Z,25.84
2023-05-14T08:01:11.610Z,25.86
2023-05-14T08:02:11.621Z,25.87
2023-05-14T08:03:11.698Z,25.89
2023-05-14T08:04:11.683Z,25.89
2023-05-14T08:05:11.614Z,25.90
2023-05-14T08:06:11.591Z,25.92
2023-05-14T08:07:11.566Z,25.93
2023-05-14T08:08:11.602Z,25.94
2023-05-14T08:09:11.604Z,25.96
2023-05-14T08:10:11.543Z,25.97
2023-05-14T08:11:11.594Z,25.98
2023-05-14T08:12:11.534Z,25.99
2023-05-14T08:13:11.524Z,26.01
2023-05-14T08:14:11.529Z,26.03
2023-05-14T08:15:11.547Z,26.04
2023-05-14T08:16:11.556Z,26.05
2023-05-14T08:17:11.578Z,26.07
2023-05-14T08:18:11.566Z,26.08
2023-05-14T08:19:11.586Z,26.09
2023-05-14T08:20:11.524Z,26.10
2023-05-14T08:21:11.471Z,26.12
2023-05-14T08:22:11.483Z,26.13
2023-05-14T08:23:11.490Z,26.15
2023-05-14T08:24:11.469Z,26.16
2023-05-14T08:25:11.440Z,26.17
2023-05-14T08:26:11.462Z,26.18
2023-05-14T08:27:11.413Z,26.19
2023-05-14T08:28:11.450Z,26.21
2023-05-14T08:29:12.829Z,26.23
2023-05-14T08:30:11.601Z,26.24
2023-05-14T08:31:11.683Z,26.25
2023-05-14T08:32:22.041Z,26.27
2023-05-14T08:33:12.668Z,26.28
2023-05-14T08:34:11.629Z,26.29
2023-05-14T08:35:11.594Z,26.29
2023-05-14T08:36:11.623Z,26.30
2023-05-14T08:37:11.596Z,26.31
2023-05-14T08:38:11.605Z,26.32
2023-05-14T08:39:11.598Z,26.34
2023-05-14T08:40:11.546Z,26.36
2023-05-14T08:41:11.564Z,26.37
2023-05-14T08:42:11.577Z,26.39
2023-05-14T08:43:11.553Z,26.40
2023-05-14T08:44:11.539Z,26.41
2023-05-14T08:45:11.526Z,26.42
2023-05-14T08:46:11.489Z,26.44
2023-05-14T08:47:11.526Z,26.46
2023-05-14T08:48:11.548Z,26.48
2023-05-14T08:49:11.677Z,26.49
2023-05-14T08:50:11.523Z,26.50
2023-05-14T08:51:11.477Z,26.51
2023-05-14T08:52:11.501Z,26.51
2023-05-14T08:53:11.455Z,26.54
2023-05-14T08:54:11.455Z,26.55
2023-05-14T08:55:11.460Z,26.56
2023-05-14T08:56:11.441Z,26.57
2023-05-14T08:57:11.469Z,26.57
2023-05-14T08:58:11.446Z,26.58
2023-05-14T08:59:11.427Z,26.59
2023-05-14T09:00:11.438Z,26.60
2023-05-14T09:01:11.443Z,26.61
2023-05-14T09:02:11.553Z,26.63
2023-05-14T09:03:11.423Z,26.64
2023-05-14T09:04:11.454Z,26.65
2023-05-14T09:05:11.364Z,26.66
2023-05-14T09:06:11.428Z,26.68
2023-05-14T09:07:11.452Z,26.69
2023-05-14T09:08:11.436Z,26.69
2023-05-14T09:09:11.447Z,26.70
2023-05-14T09:10:11.505Z,26.72
2023-05-14T09:11:11.558Z,26.72
2023-05-14T09:12:11.560Z,26.73
2023-05-14T09:13:11.616Z,26.74
2023-05-14T09:14:11.682Z,26.76
2023-05-14T09:15:11.740Z,26.76
2023-05-14T09:16:11.828Z,26.77
2023-05-14T09:17:11.858Z,26.78
2023-05-14T09:18:11.961Z,26.80
2023-05-14T09:19:12.089Z,26.80
2023-05-14T09:20:12.038Z,26.81
2023-05-14T09:21:12.085Z,26.82
2023-05-14T09:22:12.156Z,26.83
2023-05-14T09:23:12.205Z,26.84
2023-05-14T09:24:12.265Z,26.85
2023-05-14T09:25:12.511Z,26.85
2023-05-14T09:26:12.405Z,26.87
2023-05-14T09:27:12.434Z,26.86
2023-05-14T09:28:12.494Z,26.86
2023-05-14T09:29:12.548Z,26.87
2023-05-14T09:30:12.749Z,26.88
2023-05-14T09:31:12.695Z,26.89
2023-05-14T09:32:12.729Z,26.89
2023-05-14T09:33:12.785Z,26.90
2023-05-14T09:34:12.844Z,26.92
2023-05-14T09:35:12.904Z,26.92
2023-05-14T09:36:12.940Z,26.93
2023-05-14T09:37:13.025Z,26.94
2023-05-14T09:38:13.077Z,26.93
2023-05-14T09:39:13.203Z,26.93
2023-05-14T09:40:13.180Z,26.94
2023-05-14T09:41:13.294Z,26.95
2023-05-14T09:42:13.256Z,26.95
2023-05-14T09:43:13.376Z,26.95
2023-05-14T09:44:13.380Z,26.96
2023-05-14T09:45:13.406Z,26.98
2023-05-14T09:46:13.481Z,26.98
2023-05-14T09:47:13.565Z,26.98
2023-05-14T09:48:13.706Z,27.00
2023-05-14T09:49:13.636Z,27.01
2023-05-14T09:50:13.674Z,27.02
2023-05-14T09:51:13.729Z,27.02
2023-05-14T09:52:13.792Z,27.04
2023-05-14T09:53:13.855Z,27.04
2023-05-14T09:54:13.843Z,27.05
2023-05-14T09:55:13.894Z,27.05
2023-05-14T09:56:13.965Z,27.06
2023-05-14T09:57:13.972Z,27.07
2023-05-14T09:58:14.024Z,27.08
2023-05-14T09:59:14.051Z,27.08
2023-05-14T10:00:14.090Z,27.09
2023-05-14T10:01:14.185Z,27.10
2023-05-14T10:02:14.160Z,27.10
2023-05-14T10:03:14.685Z,27.11
2023-05-14T10:04:14.310Z,27.12
2023-05-14T10:05:14.268Z,27.11
2023-05-14T10:06:14.318Z,27.12
2023-05-14T10:07:14.360Z,27.13
2023-05-14T10:08:14.377Z,27.13
2023-05-14T10:09:14.417Z,27.13
2023-05-14T10:10:14.435Z,27.14
2023-05-14T10:11:14.480Z,27.15
2023-05-14T10:12:14.516Z,27.14
2023-05-14T10:13:14.532Z,27.14
2023-05-14T10:14:14.554Z,27.14
2023-05-14T10:15:14.600Z,27.15
2023-05-14T10:16:14.641Z,27.15
2023-05-14T10:17:14.758Z,27.16
2023-05-14T10:18:14.750Z,27.15
2023-05-14T10:19:14.807Z,27.16
2023-05-14T10:20:14.735Z,27.16
2023-05-14T10:21:14.818Z,27.17
2023-05-14T10:22:14.809Z,27.18
2023-05-14T10:23:14.858Z,27.19
2023-05-14T10:24:14.868Z,27.19
2023-05-14T10:25:14.911Z,27.20
2023-05-14T10:26:14.937Z,27.20
2023-05-14T10:27:14.963Z,27.21
2023-05-14T10:28:14.993Z,27.20
2023-05-14T10:29:15.030Z,27.22
2023-05-14T10:30:15.062Z,27.21
2023-05-14T10:31:15.088Z,27.22
2023-05-14T10:32:15.090Z,27.23
2023-05-14T10:33:15.253Z,27.23
2023-05-14T10:34:15.136Z,27.24
2023-05-14T10:35:15.152Z,27.25
2023-05-14T10:36:15.199Z,27.24
2023-05-14T10:37:15.225Z,27.25
2023-05-14T10:38:15.237Z,27.26
2023-05-14T10:39:15.295Z,27.26
2023-05-14T10:40:15.283Z,27.26
2023-05-14T10:41:15.309Z,27.26
2023-05-14T10:42:15.345Z,27.26
2023-05-14T10:43:15.339Z,27.25
2023-05-14T10:44:15.380Z,27.26
2023-05-14T10:45:15.398Z,27.26
2023-05-14T10:46:15.463Z,27.25
2023-05-14T10:47:15.447Z,27.26
2023-05-14T10:48:15.577Z,27.24
2023-05-14T10:49:20.976Z,27.25
2023-05-14T10:50:16.485Z,27.24
2023-05-14T10:51:15.492Z,27.24
2023-05-14T10:52:15.453Z,27.23
2023-05-14T10:53:15.476Z,27.23
2023-05-14T10:54:15.450Z,27.22
2023-05-14T10:55:15.475Z,27.22
2023-05-14T10:56:15.425Z,27.21
2023-05-14T10:57:15.439Z,27.20
2023-05-14T10:58:15.454Z,27.20
2023-05-14T10:59:15.404Z,27.20
2023-05-14T11:00:15.436Z,27.19
2023-05-14T11:01:15.392Z,27.18
2023-05-14T11:02:15.454Z,27.17
2023-05-14T11:03:15.465Z,27.17
2023-05-14T11:04:15.423Z,27.17
2023-05-14T11:05:15.615Z,27.16
2023-05-14T11:06:15.399Z,27.16
2023-05-14T11:07:15.430Z,27.17
2023-05-14T11:08:15.478Z,27.16
2023-05-14T11:09:15.487Z,27.16
2023-05-14T11:10:15.511Z,27.16
2023-05-14T11:11:15.572Z,27.16
2023-05-14T11:12:15.606Z,27.16
2023-05-14T11:13:15.640Z,27.15
2023-05-14T11:14:15.688Z,27.15
2023-05-14T11:15:15.685Z,27.15
2023-05-14T11:17:16.732Z,27.14
2023-05-14T11:18:15.747Z,27.16
2023-05-14T11:19:15.869Z,27.15
2023-05-14T11:20:15.725Z,27.15
2023-05-14T11:21:15.705Z,27.16
2023-05-14T11:22:15.685Z,27.15
2023-05-14T11:23:15.664Z,27.16
2023-05-14T11:24:15.654Z,27.15
2023-05-14T11:25:15.682Z,27.16
2023-05-14T11:26:15.729Z,27.16
2023-05-14T11:27:15.674Z,27.16
2023-05-14T11:28:15.627Z,27.18
2023-05-14T11:29:15.634Z,27.18
2023-05-14T11:30:15.624Z,27.18
2023-05-14T11:31:15.698Z,27.19
2023-05-14T11:32:15.684Z,27.20
2023-05-14T11:33:15.728Z,27.19
2023-05-14T11:34:15.776Z,27.20
2023-05-14T11:35:15.767Z,27.20
2023-05-14T11:36:15.794Z,27.21
2023-05-14T11:37:15.824Z,27.20
2023-05-14T11:38:15.821Z,27.21
2023-05-14T11:39:15.863Z,27.21
2023-05-14T11:40:15.886Z,27.21
2023-05-14T11:41:15.882Z,27.22
2023-05-14T11:42:15.927Z,27.22
2023-05-14T11:43:15.956Z,27.23
2023-05-14T11:44:15.981Z,27.23
2023-05-14T11:45:15.987Z,27.23
2023-05-14T11:46:16.093Z,27.23
2023-05-14T11:47:16.069Z,27.23
2023-05-14T11:48:16.178Z,27.23
2023-05-14T11:49:16.099Z,27.24
2023-05-14T11:50:16.154Z,27.23
2023-05-14T11:51:16.144Z,27.24
2023-05-14T11:52:16.191Z,27.23
2023-05-14T11:53:16.185Z,27.23
2023-05-14T11:54:16.197Z,27.22
2023-05-14T11:55:16.221Z,27.22
2023-05-14T11:56:16.305Z,27.21
2023-05-14T11:57:16.386Z,27.21
2023-05-14T11:58:16.294Z,27.20
2023-05-14T11:59:16.297Z,27.20
2023-05-14T12:00:16.382Z,27.19
2023-05-14T12:01:16.353Z,27.19
2023-05-14T12:02:16.446Z,27.17
2023-05-14T12:03:16.736Z,27.17
2023-05-14T12:04:16.492Z,27.16
2023-05-14T12:05:16.500Z,27.15
2023-05-14T12:06:16.486Z,27.14
2023-05-14T12:07:16.535Z,27.14
2023-05-14T12:08:16.611Z,27.13
2023-05-14T12:09:16.622Z,27.12
2023-05-14T12:10:16.642Z,27.12
2023-05-14T12:11:16.689Z,27.11
2023-05-14T12:12:16.702Z,27.11
2023-05-14T12:13:16.748Z,27.10
2023-05-14T12:14:16.799Z,27.10
2023-05-14T12:15:16.839Z,27.10
2023-05-14T12:16:17.001Z,27.09
2023-05-14T12:17:16.887Z,27.09
2023-05-14T12:18:23.986Z,27.09
2023-05-14T12:19:17.974Z,27.08
2023-05-14T12:20:16.913Z,27.08
2023-05-14T12:21:16.906Z,27.08
2023-05-14T12:22:16.884Z,27.07
2023-05-14T12:23:16.891Z,27.07
2023-05-14T12:24:16.883Z,27.07
2023-05-14T12:25:16.853Z,27.06
2023-05-14T12:26:16.870Z,27.05
2023-05-14T12:27:16.852Z,27.05
2023-05-14T12:28:16.850Z,27.05
2023-05-14T12:29:16.844Z,27.04
2023-05-14T12:30:21.861Z,27.04
2023-05-14T12:31:17.861Z,27.04
2023-05-14T12:32:16.795Z,27.04
2023-05-14T12:33:16.836Z,27.03
2023-05-14T12:34:16.792Z,27.01
2023-05-14T12:35:16.914Z,27.02
2023-05-14T12:36:21.948Z,27.02
2023-05-14T12:37:17.800Z,27.01
2023-05-14T12:38:16.789Z,27.01
2023-05-14T12:39:16.763Z,27.01
2023-05-14T12:40:16.777Z,27.01
2023-05-14T12:41:16.762Z,27.01
2023-05-14T12:42:16.738Z,27.01
2023-05-14T12:43:16.719Z,27.01
2023-05-14T12:44:16.762Z,27.01
2023-05-14T12:45:16.722Z,27.01
2023-05-14T12:46:16.780Z,27.01
2023-05-14T12:47:16.771Z,27.01
2023-05-14T12:48:16.834Z,27.01
2023-05-14T12:49:16.877Z,27.01
2023-05-14T12:50:16.914Z,27.01
2023-05-14T12:51:16.945Z,27.00
2023-05-14T12:52:33.023Z,27.01
2023-05-14T12:53:17.990Z,27.00
2023-05-14T12:54:17.001Z,27.01